sensor_id;sensor_type;location;lat;lon;timestamp;P1;durP1;ratioP1;P2;durP2;ratioP2
17937;SDS011;16051;53.024;8.630;2023-02-22T00:00:40;29.20;;;15.30;;
17937;SDS011;16051;53.024;8.630;2023-02-22T00:04:42;32.93;;;16.17;;
17937;SDS011;16051;53.024;8.630;2023-02-22T00:08:46;27.67;;;15.40;;
17937;SDS011;16051;53.024;8.630;2023-02-22T00:12:49;28.37;;;15.33;;
17937;SDS011;16051;53.024;8.630;2023-02-22T00:16:54;23.63;;;14.20;;
17937;SDS011;16051;53.024;8.630;2023-02-22T00:20:59;25.80;;;15.23;;
17937;SDS011;16051;53.024;8.630;2023-02-22T00:25:01;24.10;;;14.23;;
17937;SDS011;16051;53.024;8.630;2023-02-22T00:29:04;25.57;;;15.03;;
17937;SDS011;16051;53.024;8.630;2023-02-22T00:33:09;25.07;;;14.63;;
17937;SDS011;16051;53.024;8.630;2023-02-22T00:37:13;24.70;;;15.30;;
17937;SDS011;16051;53.024;8.630;2023-02-22T00:41:15;25.67;;;14.40;;
17937;SDS011;16051;53.024;8.630;2023-02-22T00:45:17;23.83;;;13.83;;
17937;SDS011;16051;53.024;8.630;2023-02-22T00:49:23;21.50;;;12.97;;
17937;SDS011;16051;53.024;8.630;2023-02-22T00:53:33;21.97;;;13.90;;
17937;SDS011;16051;53.024;8.630;2023-02-22T00:57:35;23.53;;;14.17;;
17937;SDS011;16051;53.024;8.630;2023-02-22T01:01:39;26.30;;;14.60;;
17937;SDS011;16051;53.024;8.630;2023-02-22T01:05:43;27.10;;;14.67;;
17937;SDS011;16051;53.024;8.630;2023-02-22T01:10:00;22.03;;;13.83;;
17937;SDS011;16051;53.024;8.630;2023-02-22T01:14:02;23.90;;;14.77;;
17937;SDS011;16051;53.024;8.630;2023-02-22T01:18:08;25.67;;;15.43;;
17937;SDS011;16051;53.024;8.630;2023-02-22T01:22:13;28.63;;;16.43;;
17937;SDS011;16051;53.024;8.630;2023-02-22T01:26:15;26.23;;;15.60;;
17937;SDS011;16051;53.024;8.630;2023-02-22T01:30:19;25.23;;;15.83;;
17937;SDS011;16051;53.024;8.630;2023-02-22T01:34:23;27.43;;;15.50;;
17937;SDS011;16051;53.024;8.630;2023-02-22T01:38:27;25.63;;;15.60;;
17937;SDS011;16051;53.024;8.630;2023-02-22T01:42:29;28.37;;;16.67;;
17937;SDS011;16051;53.024;8.630;2023-02-22T01:46:31;29.70;;;16.43;;
17937;SDS011;16051;53.024;8.630;2023-02-22T01:50:34;27.27;;;15.63;;
17937;SDS011;16051;53.024;8.630;2023-02-22T01:54:43;26.23;;;16.20;;
17937;SDS011;16051;53.024;8.630;2023-02-22T01:58:50;29.77;;;16.17;;
17937;SDS011;16051;53.024;8.630;2023-02-22T02:03:00;27.70;;;16.40;;
17937;SDS011;16051;53.024;8.630;2023-02-22T02:07:09;29.90;;;16.33;;
17937;SDS011;16051;53.024;8.630;2023-02-22T02:11:17;25.90;;;16.03;;
17937;SDS011;16051;53.024;8.630;2023-02-22T02:15:25;28.63;;;16.77;;
17937;SDS011;16051;53.024;8.630;2023-02-22T02:19:33;28.33;;;17.17;;
17937;SDS011;16051;53.024;8.630;2023-02-22T02:23:58;28.10;;;16.37;;
17937;SDS011;16051;53.024;8.630;2023-02-22T02:28:38;29.57;;;16.67;;
17937;SDS011;16051;53.024;8.630;2023-02-22T02:33:33;27.13;;;16.37;;
17937;SDS011;16051;53.024;8.630;2023-02-22T02:37:46;26.70;;;15.63;;
17937;SDS011;16051;53.024;8.630;2023-02-22T02:42:04;27.70;;;16.27;;
17937;SDS011;16051;53.024;8.630;2023-02-22T02:46:28;27.07;;;16.43;;
17937;SDS011;16051;53.024;8.630;2023-02-22T02:50:38;25.93;;;15.70;;
17937;SDS011;16051;53.024;8.630;2023-02-22T02:54:46;29.03;;;15.90;;
17937;SDS011;16051;53.024;8.630;2023-02-22T02:58:51;26.87;;;16.27;;
17937;SDS011;16051;53.024;8.630;2023-02-22T03:03:01;28.97;;;16.30;;
17937;SDS011;16051;53.024;8.630;2023-02-22T03:07:29;26.63;;;15.97;;
17937;SDS011;16051;53.024;8.630;2023-02-22T03:11:48;25.73;;;15.57;;
17937;SDS011;16051;53.024;8.630;2023-02-22T03:16:08;27.10;;;16.37;;
17937;SDS011;16051;53.024;8.630;2023-02-22T03:20:21;26.57;;;16.33;;
17937;SDS011;16051;53.024;8.630;2023-02-22T03:24:34;25.00;;;15.40;;
17937;SDS011;16051;53.024;8.630;2023-02-22T03:28:52;25.40;;;16.03;;
17937;SDS011;16051;53.024;8.630;2023-02-22T03:32:58;29.17;;;15.83;;
17937;SDS011;16051;53.024;8.630;2023-02-22T03:37:09;25.60;;;15.90;;
17937;SDS011;16051;53.024;8.630;2023-02-22T03:41:19;25.70;;;15.00;;
17937;SDS011;16051;53.024;8.630;2023-02-22T03:45:26;25.50;;;14.40;;
17937;SDS011;16051;53.024;8.630;2023-02-22T03:49:31;29.17;;;16.77;;
17937;SDS011;16051;53.024;8.630;2023-02-22T03:53:37;22.77;;;14.47;;
17937;SDS011;16051;53.024;8.630;2023-02-22T03:57:41;24.80;;;13.97;;
17937;SDS011;16051;53.024;8.630;2023-02-22T04:01:48;27.17;;;15.53;;
17937;SDS011;16051;53.024;8.630;2023-02-22T04:10:27;24.70;;;15.30;;
17937;SDS011;16051;53.024;8.630;2023-02-22T04:14:32;28.17;;;16.37;;
17937;SDS011;16051;53.024;8.630;2023-02-22T04:18:34;27.50;;;14.70;;
17937;SDS011;16051;53.024;8.630;2023-02-22T04:22:36;22.90;;;15.00;;
17937;SDS011;16051;53.024;8.630;2023-02-22T04:26:38;24.60;;;14.33;;
17937;SDS011;16051;53.024;8.630;2023-02-22T04:30:43;20.40;;;13.37;;
17937;SDS011;16051;53.024;8.630;2023-02-22T04:34:46;22.07;;;13.83;;
17937;SDS011;16051;53.024;8.630;2023-02-22T04:38:48;24.23;;;14.03;;
17937;SDS011;16051;53.024;8.630;2023-02-22T04:42:50;24.27;;;14.70;;
17937;SDS011;16051;53.024;8.630;2023-02-22T04:46:53;29.73;;;15.80;;
17937;SDS011;16051;53.024;8.630;2023-02-22T04:50:56;31.77;;;16.87;;
17937;SDS011;16051;53.024;8.630;2023-02-22T04:54:58;28.87;;;17.83;;
17937;SDS011;16051;53.024;8.630;2023-02-22T04:59:01;28.90;;;16.13;;
17937;SDS011;16051;53.024;8.630;2023-02-22T05:03:04;36.60;;;18.80;;
17937;SDS011;16051;53.024;8.630;2023-02-22T05:07:07;37.40;;;19.63;;
17937;SDS011;16051;53.024;8.630;2023-02-22T05:11:10;34.23;;;20.30;;
17937;SDS011;16051;53.024;8.630;2023-02-22T05:15:15;39.27;;;21.23;;
17937;SDS011;16051;53.024;8.630;2023-02-22T05:19:23;34.30;;;20.40;;
17937;SDS011;16051;53.024;8.630;2023-02-22T05:23:25;35.87;;;20.40;;
17937;SDS011;16051;53.024;8.630;2023-02-22T05:27:27;39.50;;;21.93;;
17937;SDS011;16051;53.024;8.630;2023-02-22T05:31:29;37.70;;;20.50;;
17937;SDS011;16051;53.024;8.630;2023-02-22T05:35:33;39.57;;;21.57;;
17937;SDS011;16051;53.024;8.630;2023-02-22T05:39:38;38.10;;;20.37;;
17937;SDS011;16051;53.024;8.630;2023-02-22T05:43:40;37.63;;;19.80;;
17937;SDS011;16051;53.024;8.630;2023-02-22T05:47:42;37.83;;;19.40;;
17937;SDS011;16051;53.024;8.630;2023-02-22T05:51:52;34.83;;;17.90;;
17937;SDS011;16051;53.024;8.630;2023-02-22T05:55:58;32.47;;;17.20;;
17937;SDS011;16051;53.024;8.630;2023-02-22T06:00:00;35.40;;;18.07;;
17937;SDS011;16051;53.024;8.630;2023-02-22T06:04:05;30.17;;;16.50;;
17937;SDS011;16051;53.024;8.630;2023-02-22T06:08:09;35.33;;;17.17;;
17937;SDS011;16051;53.024;8.630;2023-02-22T06:12:11;32.40;;;15.80;;
17937;SDS011;16051;53.024;8.630;2023-02-22T06:20:26;32.13;;;16.87;;
17937;SDS011;16051;53.024;8.630;2023-02-22T06:24:31;32.40;;;15.20;;
17937;SDS011;16051;53.024;8.630;2023-02-22T06:28:39;35.57;;;15.67;;
17937;SDS011;16051;53.024;8.630;2023-02-22T06:32:41;36.87;;;15.47;;
17937;SDS011;16051;53.024;8.630;2023-02-22T06:36:44;37.43;;;17.53;;
17937;SDS011;16051;53.024;8.630;2023-02-22T06:40:48;30.63;;;14.47;;
17937;SDS011;16051;53.024;8.630;2023-02-22T06:44:51;29.53;;;15.13;;
17937;SDS011;16051;53.024;8.630;2023-02-22T06:48:53;33.10;;;15.67;;
17937;SDS011;16051;53.024;8.630;2023-02-22T06:53:04;32.47;;;15.33;;
17937;SDS011;16051;53.024;8.630;2023-02-22T06:57:08;28.60;;;14.67;;
17937;SDS011;16051;53.024;8.630;2023-02-22T07:01:10;31.67;;;14.47;;
17937;SDS011;16051;53.024;8.630;2023-02-22T07:05:14;27.03;;;14.17;;
17937;SDS011;16051;53.024;8.630;2023-02-22T07:09:18;28.37;;;14.67;;
17937;SDS011;16051;53.024;8.630;2023-02-22T07:17:28;26.37;;;14.53;;
17937;SDS011;16051;53.024;8.630;2023-02-22T07:21:30;26.17;;;13.87;;
17937;SDS011;16051;53.024;8.630;2023-02-22T07:25:33;27.67;;;13.60;;
17937;SDS011;16051;53.024;8.630;2023-02-22T07:29:37;21.60;;;13.27;;
17937;SDS011;16051;53.024;8.630;2023-02-22T07:33:39;31.07;;;13.17;;
17937;SDS011;16051;53.024;8.630;2023-02-22T07:37:41;30.13;;;13.97;;
17937;SDS011;16051;53.024;8.630;2023-02-22T07:41:44;22.23;;;11.97;;
17937;SDS011;16051;53.024;8.630;2023-02-22T07:45:48;25.87;;;12.57;;
17937;SDS011;16051;53.024;8.630;2023-02-22T07:49:52;25.40;;;13.47;;
17937;SDS011;16051;53.024;8.630;2023-02-22T07:53:55;24.17;;;12.70;;
17937;SDS011;16051;53.024;8.630;2023-02-22T07:58:04;23.80;;;13.03;;
17937;SDS011;16051;53.024;8.630;2023-02-22T08:02:10;27.50;;;12.83;;
17937;SDS011;16051;53.024;8.630;2023-02-22T08:06:17;22.83;;;12.03;;
17937;SDS011;16051;53.024;8.630;2023-02-22T08:10:20;21.60;;;11.23;;
17937;SDS011;16051;53.024;8.630;2023-02-22T08:14:24;22.40;;;12.40;;
17937;SDS011;16051;53.024;8.630;2023-02-22T08:18:28;24.10;;;12.73;;
17937;SDS011;16051;53.024;8.630;2023-02-22T08:22:36;21.80;;;12.23;;
17937;SDS011;16051;53.024;8.630;2023-02-22T08:26:42;22.27;;;12.23;;
17937;SDS011;16051;53.024;8.630;2023-02-22T08:30:45;24.07;;;11.47;;
17937;SDS011;16051;53.024;8.630;2023-02-22T08:34:49;23.77;;;12.57;;
17937;SDS011;16051;53.024;8.630;2023-02-22T08:38:52;22.73;;;11.40;;
17937;SDS011;16051;53.024;8.630;2023-02-22T08:42:54;25.33;;;12.90;;
17937;SDS011;16051;53.024;8.630;2023-02-22T08:46:56;20.73;;;11.87;;
17937;SDS011;16051;53.024;8.630;2023-02-22T08:51:00;28.77;;;12.80;;
17937;SDS011;16051;53.024;8.630;2023-02-22T08:55:02;23.03;;;12.23;;
17937;SDS011;16051;53.024;8.630;2023-02-22T08:59:07;21.90;;;12.27;;
17937;SDS011;16051;53.024;8.630;2023-02-22T09:03:11;24.40;;;12.57;;
17937;SDS011;16051;53.024;8.630;2023-02-22T09:07:17;25.17;;;13.50;;
17937;SDS011;16051;53.024;8.630;2023-02-22T09:11:19;24.77;;;12.83;;
17937;SDS011;16051;53.024;8.630;2023-02-22T09:24:12;26.00;;;13.27;;
17937;SDS011;16051;53.024;8.630;2023-02-22T09:28:14;23.07;;;13.17;;
17937;SDS011;16051;53.024;8.630;2023-02-22T09:32:17;22.83;;;12.50;;
17937;SDS011;16051;53.024;8.630;2023-02-22T09:36:19;25.67;;;13.30;;
17937;SDS011;16051;53.024;8.630;2023-02-22T09:40:23;21.70;;;12.93;;
17937;SDS011;16051;53.024;8.630;2023-02-22T09:44:31;21.93;;;12.37;;
17937;SDS011;16051;53.024;8.630;2023-02-22T09:53:21;26.60;;;12.90;;
17937;SDS011;16051;53.024;8.630;2023-02-22T09:57:41;22.57;;;12.80;;
17937;SDS011;16051;53.024;8.630;2023-02-22T10:01:45;23.00;;;12.77;;
17937;SDS011;16051;53.024;8.630;2023-02-22T10:05:58;20.97;;;12.20;;
17937;SDS011;16051;53.024;8.630;2023-02-22T10:10:09;21.00;;;12.73;;
17937;SDS011;16051;53.024;8.630;2023-02-22T10:14:33;19.60;;;11.70;;
17937;SDS011;16051;53.024;8.630;2023-02-22T10:18:57;23.53;;;12.70;;
17937;SDS011;16051;53.024;8.630;2023-02-22T10:23:24;21.50;;;12.30;;
17937;SDS011;16051;53.024;8.630;2023-02-22T10:27:55;21.70;;;13.40;;
17937;SDS011;16051;53.024;8.630;2023-02-22T10:32:05;21.50;;;11.93;;
17937;SDS011;16051;53.024;8.630;2023-02-22T10:36:17;19.23;;;11.67;;
17937;SDS011;16051;53.024;8.630;2023-02-22T10:40:23;21.03;;;11.87;;
17937;SDS011;16051;53.024;8.630;2023-02-22T10:44:32;19.87;;;11.60;;
17937;SDS011;16051;53.024;8.630;2023-02-22T10:48:36;21.40;;;11.77;;
17937;SDS011;16051;53.024;8.630;2023-02-22T10:52:48;22.43;;;12.77;;
17937;SDS011;16051;53.024;8.630;2023-02-22T10:56:51;19.50;;;11.40;;
17937;SDS011;16051;53.024;8.630;2023-02-22T11:00:55;20.40;;;12.23;;
17937;SDS011;16051;53.024;8.630;2023-02-22T11:04:59;22.43;;;12.23;;
17937;SDS011;16051;53.024;8.630;2023-02-22T11:09:06;22.53;;;13.27;;
17937;SDS011;16051;53.024;8.630;2023-02-22T11:13:18;21.47;;;12.47;;
17937;SDS011;16051;53.024;8.630;2023-02-22T11:17:28;19.20;;;12.50;;
17937;SDS011;16051;53.024;8.630;2023-02-22T11:21:36;20.00;;;12.23;;
17937;SDS011;16051;53.024;8.630;2023-02-22T11:25:40;19.97;;;11.13;;
17937;SDS011;16051;53.024;8.630;2023-02-22T11:29:43;18.37;;;11.53;;
17937;SDS011;16051;53.024;8.630;2023-02-22T11:33:51;20.13;;;12.90;;
17937;SDS011;16051;53.024;8.630;2023-02-22T11:42:20;17.67;;;11.77;;
17937;SDS011;16051;53.024;8.630;2023-02-22T11:46:25;20.57;;;12.13;;
17937;SDS011;16051;53.024;8.630;2023-02-22T11:50:33;22.47;;;12.97;;
17937;SDS011;16051;53.024;8.630;2023-02-22T11:55:14;17.97;;;11.70;;
17937;SDS011;16051;53.024;8.630;2023-02-22T11:59:25;20.80;;;12.40;;
17937;SDS011;16051;53.024;8.630;2023-02-22T12:03:44;17.33;;;11.30;;
17937;SDS011;16051;53.024;8.630;2023-02-22T12:08:40;17.47;;;10.80;;
17937;SDS011;16051;53.024;8.630;2023-02-22T12:13:00;20.73;;;11.87;;
17937;SDS011;16051;53.024;8.630;2023-02-22T12:17:22;19.80;;;12.40;;
17937;SDS011;16051;53.024;8.630;2023-02-22T12:21:37;19.67;;;12.17;;
17937;SDS011;16051;53.024;8.630;2023-02-22T12:25:52;20.00;;;12.23;;
17937;SDS011;16051;53.024;8.630;2023-02-22T12:30:04;18.57;;;11.60;;
17937;SDS011;16051;53.024;8.630;2023-02-22T12:34:18;20.87;;;12.47;;
17937;SDS011;16051;53.024;8.630;2023-02-22T12:38:32;19.37;;;12.17;;
17937;SDS011;16051;53.024;8.630;2023-02-22T12:42:55;19.83;;;12.20;;
17937;SDS011;16051;53.024;8.630;2023-02-22T12:47:07;20.00;;;12.97;;
17937;SDS011;16051;53.024;8.630;2023-02-22T12:51:24;22.03;;;13.73;;
17937;SDS011;16051;53.024;8.630;2023-02-22T12:55:34;18.37;;;12.67;;
17937;SDS011;16051;53.024;8.630;2023-02-22T13:04:16;19.70;;;12.60;;
17937;SDS011;16051;53.024;8.630;2023-02-22T13:08:20;19.37;;;12.23;;
17937;SDS011;16051;53.024;8.630;2023-02-22T13:12:43;22.20;;;12.97;;
17937;SDS011;16051;53.024;8.630;2023-02-22T13:16:58;18.00;;;12.03;;
17937;SDS011;16051;53.024;8.630;2023-02-22T13:21:17;22.87;;;12.67;;
17937;SDS011;16051;53.024;8.630;2023-02-22T13:25:29;18.70;;;13.03;;
17937;SDS011;16051;53.024;8.630;2023-02-22T13:29:41;20.63;;;12.97;;
17937;SDS011;16051;53.024;8.630;2023-02-22T13:34:00;18.87;;;12.67;;
17937;SDS011;16051;53.024;8.630;2023-02-22T13:43:33;20.87;;;13.07;;
17937;SDS011;16051;53.024;8.630;2023-02-22T13:48:23;17.43;;;12.37;;
17937;SDS011;16051;53.024;8.630;2023-02-22T13:52:52;19.20;;;13.53;;
17937;SDS011;16051;53.024;8.630;2023-02-22T13:56:57;21.73;;;12.67;;
17937;SDS011;16051;53.024;8.630;2023-02-22T14:01:03;20.93;;;13.60;;
17937;SDS011;16051;53.024;8.630;2023-02-22T14:09:49;22.27;;;13.73;;
17937;SDS011;16051;53.024;8.630;2023-02-22T14:14:14;17.67;;;12.60;;
17937;SDS011;16051;53.024;8.630;2023-02-22T14:18:21;20.20;;;13.27;;
17937;SDS011;16051;53.024;8.630;2023-02-22T14:22:28;21.10;;;12.97;;
17937;SDS011;16051;53.024;8.630;2023-02-22T14:26:32;21.60;;;13.43;;
17937;SDS011;16051;53.024;8.630;2023-02-22T14:30:39;20.10;;;14.07;;
17937;SDS011;16051;53.024;8.630;2023-02-22T14:34:47;21.47;;;13.43;;
17937;SDS011;16051;53.024;8.630;2023-02-22T14:38:57;19.30;;;12.90;;
17937;SDS011;16051;53.024;8.630;2023-02-22T14:43:15;22.80;;;14.70;;
17937;SDS011;16051;53.024;8.630;2023-02-22T14:47:23;17.97;;;13.80;;
17937;SDS011;16051;53.024;8.630;2023-02-22T14:51:38;21.13;;;14.03;;
17937;SDS011;16051;53.024;8.630;2023-02-22T14:55:46;22.53;;;14.00;;
17937;SDS011;16051;53.024;8.630;2023-02-22T15:00:06;22.03;;;14.23;;
17937;SDS011;16051;53.024;8.630;2023-02-22T15:04:20;20.03;;;13.50;;
17937;SDS011;16051;53.024;8.630;2023-02-22T15:08:28;20.20;;;14.07;;
17937;SDS011;16051;53.024;8.630;2023-02-22T15:12:33;20.10;;;13.87;;
17937;SDS011;16051;53.024;8.630;2023-02-22T15:16:35;22.00;;;14.83;;
17937;SDS011;16051;53.024;8.630;2023-02-22T15:20:51;21.40;;;13.67;;
17937;SDS011;16051;53.024;8.630;2023-02-22T15:24:59;17.67;;;13.00;;
17937;SDS011;16051;53.024;8.630;2023-02-22T15:29:06;17.70;;;12.73;;
17937;SDS011;16051;53.024;8.630;2023-02-22T15:33:14;20.23;;;13.93;;
17937;SDS011;16051;53.024;8.630;2023-02-22T15:37:23;21.23;;;14.00;;
17937;SDS011;16051;53.024;8.630;2023-02-22T15:41:30;19.50;;;13.03;;
17937;SDS011;16051;53.024;8.630;2023-02-22T15:45:33;20.00;;;13.90;;
17937;SDS011;16051;53.024;8.630;2023-02-22T15:49:41;21.63;;;14.17;;
17937;SDS011;16051;53.024;8.630;2023-02-22T15:53:44;20.77;;;14.00;;
17937;SDS011;16051;53.024;8.630;2023-02-22T15:57:49;20.83;;;13.80;;
17937;SDS011;16051;53.024;8.630;2023-02-22T16:01:52;20.53;;;14.37;;
17937;SDS011;16051;53.024;8.630;2023-02-22T16:05:54;20.87;;;14.07;;
17937;SDS011;16051;53.024;8.630;2023-02-22T16:09:59;21.23;;;14.30;;
17937;SDS011;16051;53.024;8.630;2023-02-22T16:18:31;21.40;;;14.00;;
17937;SDS011;16051;53.024;8.630;2023-02-22T16:22:36;21.60;;;14.63;;
17937;SDS011;16051;53.024;8.630;2023-02-22T16:27:00;19.53;;;13.57;;
17937;SDS011;16051;53.024;8.630;2023-02-22T16:31:20;25.07;;;15.20;;
17937;SDS011;16051;53.024;8.630;2023-02-22T16:35:25;23.07;;;14.83;;
17937;SDS011;16051;53.024;8.630;2023-02-22T16:39:41;23.23;;;14.67;;
17937;SDS011;16051;53.024;8.630;2023-02-22T16:43:46;22.87;;;16.27;;
17937;SDS011;16051;53.024;8.630;2023-02-22T16:47:51;21.03;;;13.57;;
17937;SDS011;16051;53.024;8.630;2023-02-22T16:51:55;22.97;;;15.90;;
17937;SDS011;16051;53.024;8.630;2023-02-22T16:56:01;23.00;;;15.03;;
17937;SDS011;16051;53.024;8.630;2023-02-22T17:00:07;22.17;;;15.23;;
17937;SDS011;16051;53.024;8.630;2023-02-22T17:04:18;23.27;;;15.20;;
17937;SDS011;16051;53.024;8.630;2023-02-22T17:08:23;23.07;;;13.60;;
17937;SDS011;16051;53.024;8.630;2023-02-22T17:12:26;21.10;;;14.10;;
17937;SDS011;16051;53.024;8.630;2023-02-22T17:16:31;20.10;;;13.43;;
17937;SDS011;16051;53.024;8.630;2023-02-22T17:25:20;19.97;;;14.30;;
17937;SDS011;16051;53.024;8.630;2023-02-22T17:29:25;21.90;;;15.03;;
17937;SDS011;16051;53.024;8.630;2023-02-22T17:33:42;22.50;;;14.13;;
17937;SDS011;16051;53.024;8.630;2023-02-22T17:37:47;21.63;;;14.07;;
17937;SDS011;16051;53.024;8.630;2023-02-22T17:41:49;23.20;;;15.93;;
17937;SDS011;16051;53.024;8.630;2023-02-22T17:45:56;23.63;;;14.70;;
17937;SDS011;16051;53.024;8.630;2023-02-22T17:49:59;24.00;;;15.83;;
17937;SDS011;16051;53.024;8.630;2023-02-22T17:54:02;21.30;;;14.40;;
17937;SDS011;16051;53.024;8.630;2023-02-22T18:02:38;24.63;;;15.37;;
17937;SDS011;16051;53.024;8.630;2023-02-22T18:06:40;23.00;;;14.53;;
17937;SDS011;16051;53.024;8.630;2023-02-22T18:10:44;22.90;;;15.20;;
17937;SDS011;16051;53.024;8.630;2023-02-22T18:14:51;22.43;;;15.17;;
17937;SDS011;16051;53.024;8.630;2023-02-22T18:18:54;24.07;;;15.53;;
17937;SDS011;16051;53.024;8.630;2023-02-22T18:22:58;23.63;;;15.67;;
17937;SDS011;16051;53.024;8.630;2023-02-22T18:27:08;23.10;;;15.10;;
17937;SDS011;16051;53.024;8.630;2023-02-22T18:31:15;21.27;;;14.80;;
17937;SDS011;16051;53.024;8.630;2023-02-22T18:39:28;24.20;;;14.73;;
17937;SDS011;16051;53.024;8.630;2023-02-22T18:43:34;21.27;;;13.77;;
17937;SDS011;16051;53.024;8.630;2023-02-22T18:47:37;21.73;;;14.43;;
17937;SDS011;16051;53.024;8.630;2023-02-22T18:51:41;23.47;;;14.07;;
17937;SDS011;16051;53.024;8.630;2023-02-22T18:55:53;25.43;;;16.10;;
17937;SDS011;16051;53.024;8.630;2023-02-22T18:59:56;24.07;;;15.67;;
17937;SDS011;16051;53.024;8.630;2023-02-22T19:03:58;24.90;;;16.20;;
17937;SDS011;16051;53.024;8.630;2023-02-22T19:08:08;25.57;;;15.33;;
17937;SDS011;16051;53.024;8.630;2023-02-22T19:12:10;23.73;;;14.80;;
17937;SDS011;16051;53.024;8.630;2023-02-22T19:16:17;24.63;;;15.63;;
17937;SDS011;16051;53.024;8.630;2023-02-22T19:25:01;21.27;;;15.00;;
17937;SDS011;16051;53.024;8.630;2023-02-22T19:29:03;18.87;;;14.27;;
17937;SDS011;16051;53.024;8.630;2023-02-22T19:33:08;23.47;;;15.83;;
17937;SDS011;16051;53.024;8.630;2023-02-22T19:37:11;23.63;;;16.57;;
17937;SDS011;16051;53.024;8.630;2023-02-22T19:41:23;26.30;;;16.27;;
17937;SDS011;16051;53.024;8.630;2023-02-22T19:45:25;24.70;;;16.57;;
17937;SDS011;16051;53.024;8.630;2023-02-22T19:49:29;21.47;;;15.20;;
17937;SDS011;16051;53.024;8.630;2023-02-22T19:57:54;23.40;;;15.30;;
17937;SDS011;16051;53.024;8.630;2023-02-22T20:01:56;20.97;;;13.93;;
17937;SDS011;16051;53.024;8.630;2023-02-22T20:06:00;20.13;;;13.30;;
17937;SDS011;16051;53.024;8.630;2023-02-22T20:10:02;16.93;;;12.53;;
17937;SDS011;16051;53.024;8.630;2023-02-22T20:18:24;19.13;;;13.00;;
17937;SDS011;16051;53.024;8.630;2023-02-22T20:22:40;20.90;;;13.73;;
17937;SDS011;16051;53.024;8.630;2023-02-22T20:26:46;20.37;;;14.17;;
17937;SDS011;16051;53.024;8.630;2023-02-22T20:30:54;27.40;;;17.90;;
17937;SDS011;16051;53.024;8.630;2023-02-22T20:35:08;27.07;;;17.23;;
17937;SDS011;16051;53.024;8.630;2023-02-22T20:39:12;21.97;;;15.63;;
17937;SDS011;16051;53.024;8.630;2023-02-22T20:43:14;22.90;;;15.70;;
17937;SDS011;16051;53.024;8.630;2023-02-22T20:47:16;20.73;;;14.67;;
17937;SDS011;16051;53.024;8.630;2023-02-22T20:51:18;23.53;;;15.07;;
17937;SDS011;16051;53.024;8.630;2023-02-22T21:04:08;39.27;;;23.70;;
17937;SDS011;16051;53.024;8.630;2023-02-22T21:08:12;53.13;;;28.70;;
17937;SDS011;16051;53.024;8.630;2023-02-22T21:12:17;41.50;;;24.50;;
17937;SDS011;16051;53.024;8.630;2023-02-22T21:16:22;37.00;;;19.87;;
17937;SDS011;16051;53.024;8.630;2023-02-22T21:20:27;30.60;;;19.37;;
17937;SDS011;16051;53.024;8.630;2023-02-22T21:24:47;28.63;;;18.97;;
17937;SDS011;16051;53.024;8.630;2023-02-22T21:28:50;28.47;;;19.87;;
17937;SDS011;16051;53.024;8.630;2023-02-22T21:32:54;22.40;;;15.33;;
17937;SDS011;16051;53.024;8.630;2023-02-22T21:36:56;21.53;;;14.17;;
17937;SDS011;16051;53.024;8.630;2023-02-22T21:40:58;22.37;;;14.97;;
17937;SDS011;16051;53.024;8.630;2023-02-22T21:45:11;25.53;;;16.20;;
17937;SDS011;16051;53.024;8.630;2023-02-22T21:49:14;23.03;;;14.47;;
17937;SDS011;16051;53.024;8.630;2023-02-22T21:53:17;18.23;;;13.30;;
17937;SDS011;16051;53.024;8.630;2023-02-22T21:57:19;16.90;;;12.70;;
17937;SDS011;16051;53.024;8.630;2023-02-22T22:01:23;20.30;;;13.53;;
17937;SDS011;16051;53.024;8.630;2023-02-22T22:05:27;19.20;;;12.50;;
17937;SDS011;16051;53.024;8.630;2023-02-22T22:09:32;16.67;;;11.77;;
17937;SDS011;16051;53.024;8.630;2023-02-22T22:13:40;17.30;;;11.57;;
17937;SDS011;16051;53.024;8.630;2023-02-22T22:17:44;12.13;;;9.23;;
17937;SDS011;16051;53.024;8.630;2023-02-22T22:21:47;10.97;;;7.73;;
17937;SDS011;16051;53.024;8.630;2023-02-22T22:25:58;9.80;;;7.00;;
17937;SDS011;16051;53.024;8.630;2023-02-22T22:30:02;7.57;;;6.57;;
17937;SDS011;16051;53.024;8.630;2023-02-22T22:38:41;9.23;;;7.10;;
17937;SDS011;16051;53.024;8.630;2023-02-22T22:42:46;7.80;;;6.00;;
17937;SDS011;16051;53.024;8.630;2023-02-22T22:46:48;9.60;;;7.07;;
17937;SDS011;16051;53.024;8.630;2023-02-22T22:50:58;8.93;;;7.20;;
17937;SDS011;16051;53.024;8.630;2023-02-22T22:55:02;7.93;;;6.97;;
17937;SDS011;16051;53.024;8.630;2023-02-22T22:59:10;7.80;;;6.67;;
17937;SDS011;16051;53.024;8.630;2023-02-22T23:03:14;10.73;;;7.67;;
17937;SDS011;16051;53.024;8.630;2023-02-22T23:07:19;9.17;;;6.60;;
17937;SDS011;16051;53.024;8.630;2023-02-22T23:11:21;7.10;;;6.10;;
17937;SDS011;16051;53.024;8.630;2023-02-22T23:15:23;12.07;;;8.27;;
17937;SDS011;16051;53.024;8.630;2023-02-22T23:19:26;25.10;;;13.73;;
17937;SDS011;16051;53.024;8.630;2023-02-22T23:23:39;20.20;;;10.80;;
17937;SDS011;16051;53.024;8.630;2023-02-22T23:27:41;12.80;;;7.87;;
17937;SDS011;16051;53.024;8.630;2023-02-22T23:32:00;9.77;;;6.93;;
17937;SDS011;16051;53.024;8.630;2023-02-22T23:36:05;9.63;;;7.57;;
17937;SDS011;16051;53.024;8.630;2023-02-22T23:40:13;11.03;;;7.93;;
17937;SDS011;16051;53.024;8.630;2023-02-22T23:48:40;11.67;;;8.70;;
17937;SDS011;16051;53.024;8.630;2023-02-22T23:52:45;12.13;;;8.87;;
17937;SDS011;16051;53.024;8.630;2023-02-22T23:56:50;11.90;;;8.53;;
